KPCD/PCD METAR and TAF weather

Enter ICAO airport designator
Station Type Date Time Source
KPCD METAR 2021/09/28 04:35 UTC NOAA

KPCD 280435Z AUTO 23005KT 10SM CLR 22/15 A2993 RMK AO2 T02160152


Station Type Date Time Source
KPCD Decoded METAR 2021/09/28 04:35 UTC NOAA

Station name not available
Sep 28, 2021 - 12:35 AM EDT / 2021.09.28 0435 UTC
Wind: from the SW (230 degrees) at 6 MPH (5 KT):0
Visibility: 10 mile(s):0
Sky conditions: clear
Temperature: 70.9 F (21.6 C)
Dew Point: 59.4 F (15.2 C)
Relative Humidity: 66%
Pressure (altimeter): 29.93 in. Hg (1013 hPa)
ob: KPCD 280435Z AUTO 23005KT 10SM CLR 22/15 A2993 RMK AO2 T02160152
cycle: 4

Station Type Date Time Source
KPCD TAF UTC NOAA

Error!

Example: see airport list